sensor_id;sensor_type;location;lat;lon;timestamp;pressure;altitude;pressure_sealevel;temperature;humidity
61035;BME280;46916;40.564;-7.958;2023-08-07T00:00:27;97218.88;;;27.90;27.88
61035;BME280;46916;40.564;-7.958;2023-08-07T00:02:27;97207.56;;;27.88;28.26
61035;BME280;46916;40.564;-7.958;2023-08-07T00:04:28;97208.03;;;27.85;27.80
61035;BME280;46916;40.564;-7.958;2023-08-07T00:06:28;97217.66;;;27.81;27.97
61035;BME280;46916;40.564;-7.958;2023-08-07T00:08:29;97203.16;;;27.82;28.23
61035;BME280;46916;40.564;-7.958;2023-08-07T00:10:30;97201.19;;;27.78;28.44
61035;BME280;46916;40.564;-7.958;2023-08-07T00:12:31;97204.38;;;27.75;28.19
61035;BME280;46916;40.564;-7.958;2023-08-07T00:14:31;97206.69;;;27.71;28.46
61035;BME280;46916;40.564;-7.958;2023-08-07T00:16:32;97204.53;;;27.68;28.64
61035;BME280;46916;40.564;-7.958;2023-08-07T00:18:33;97211.44;;;27.64;28.76
61035;BME280;46916;40.564;-7.958;2023-08-07T00:20:33;97210.06;;;27.61;28.70
61035;BME280;46916;40.564;-7.958;2023-08-07T00:22:34;97201.66;;;27.58;28.69
61035;BME280;46916;40.564;-7.958;2023-08-07T00:24:34;97193.56;;;27.58;28.77
61035;BME280;46916;40.564;-7.958;2023-08-07T00:26:35;97205.31;;;27.52;28.99
61035;BME280;46916;40.564;-7.958;2023-08-07T00:28:36;97195.84;;;27.49;29.27
61035;BME280;46916;40.564;-7.958;2023-08-07T00:30:36;97205.81;;;27.49;28.98
61035;BME280;46916;40.564;-7.958;2023-08-07T00:32:36;97200.91;;;27.46;29.25
61035;BME280;46916;40.564;-7.958;2023-08-07T00:34:37;97201.38;;;27.42;29.32
61035;BME280;46916;40.564;-7.958;2023-08-07T00:36:37;97198.34;;;27.39;29.06
61035;BME280;46916;40.564;-7.958;2023-08-07T00:38:38;97204.81;;;27.38;29.53
61035;BME280;46916;40.564;-7.958;2023-08-07T00:40:39;97197.22;;;27.35;29.53
61035;BME280;46916;40.564;-7.958;2023-08-07T00:42:39;97197.94;;;27.30;29.74
61035;BME280;46916;40.564;-7.958;2023-08-07T00:44:40;97197.38;;;27.28;29.69
61035;BME280;46916;40.564;-7.958;2023-08-07T00:46:40;97198.19;;;27.29;29.78
61035;BME280;46916;40.564;-7.958;2023-08-07T00:48:42;97188.72;;;27.26;29.87
61035;BME280;46916;40.564;-7.958;2023-08-07T00:50:42;97192.22;;;27.27;29.67
61035;BME280;46916;40.564;-7.958;2023-08-07T00:52:45;97191.41;;;27.26;29.72
61035;BME280;46916;40.564;-7.958;2023-08-07T00:54:45;97190.59;;;27.26;29.82
61035;BME280;46916;40.564;-7.958;2023-08-07T00:56:46;97187.84;;;27.21;30.23
61035;BME280;46916;40.564;-7.958;2023-08-07T00:58:47;97193.47;;;27.19;30.33
61035;BME280;46916;40.564;-7.958;2023-08-07T01:00:47;97187.25;;;27.19;30.31
61035;BME280;46916;40.564;-7.958;2023-08-07T01:02:48;97185.41;;;27.19;30.46
61035;BME280;46916;40.564;-7.958;2023-08-07T01:04:51;97189.63;;;27.15;30.32
61035;BME280;46916;40.564;-7.958;2023-08-07T01:06:51;97186.94;;;27.15;30.18
61035;BME280;46916;40.564;-7.958;2023-08-07T01:08:52;97185.28;;;27.14;30.53
61035;BME280;46916;40.564;-7.958;2023-08-07T01:13:28;97180.84;;;27.08;30.50
61035;BME280;46916;40.564;-7.958;2023-08-07T01:15:30;97182.41;;;27.04;30.30
61035;BME280;46916;40.564;-7.958;2023-08-07T01:17:31;97181.25;;;27.00;30.47
61035;BME280;46916;40.564;-7.958;2023-08-07T01:19:35;97184.66;;;26.95;30.65
61035;BME280;46916;40.564;-7.958;2023-08-07T01:21:36;97186.41;;;26.89;30.97
61035;BME280;46916;40.564;-7.958;2023-08-07T01:23:37;97186.91;;;26.86;30.77
61035;BME280;46916;40.564;-7.958;2023-08-07T01:25:38;97188.66;;;26.81;30.89
61035;BME280;46916;40.564;-7.958;2023-08-07T01:27:44;97189.97;;;26.78;31.00
61035;BME280;46916;40.564;-7.958;2023-08-07T01:32:06;97186.84;;;26.70;31.17
61035;BME280;46916;40.564;-7.958;2023-08-07T01:34:08;97184.41;;;26.68;31.26
61035;BME280;46916;40.564;-7.958;2023-08-07T01:36:13;97182.78;;;26.67;31.35
61035;BME280;46916;40.564;-7.958;2023-08-07T01:38:14;97181.63;;;26.63;31.33
61035;BME280;46916;40.564;-7.958;2023-08-07T01:40:15;97187.47;;;26.60;31.81
61035;BME280;46916;40.564;-7.958;2023-08-07T01:42:16;97184.69;;;26.55;31.71
61035;BME280;46916;40.564;-7.958;2023-08-07T01:44:17;97188.63;;;26.52;32.08
61035;BME280;46916;40.564;-7.958;2023-08-07T01:46:18;97185.13;;;26.52;31.89
61035;BME280;46916;40.564;-7.958;2023-08-07T01:48:19;97176.75;;;26.48;31.92
61035;BME280;46916;40.564;-7.958;2023-08-07T01:50:22;97180.03;;;26.50;32.43
61035;BME280;46916;40.564;-7.958;2023-08-07T01:52:24;97180.03;;;26.50;32.27
61035;BME280;46916;40.564;-7.958;2023-08-07T01:54:24;97174.31;;;26.47;32.16
61035;BME280;46916;40.564;-7.958;2023-08-07T01:56:25;97179.06;;;26.45;32.41
61035;BME280;46916;40.564;-7.958;2023-08-07T01:58:25;97173.72;;;26.45;32.53
61035;BME280;46916;40.564;-7.958;2023-08-07T02:00:26;97176.59;;;26.43;32.28
61035;BME280;46916;40.564;-7.958;2023-08-07T02:02:27;97166.69;;;26.43;32.45
61035;BME280;46916;40.564;-7.958;2023-08-07T02:04:27;97173.03;;;26.37;32.66
61035;BME280;46916;40.564;-7.958;2023-08-07T02:06:28;97172.66;;;26.34;32.65
61035;BME280;46916;40.564;-7.958;2023-08-07T02:08:29;97170.56;;;26.36;32.49
61035;BME280;46916;40.564;-7.958;2023-08-07T02:10:29;97169.16;;;26.33;32.58
61035;BME280;46916;40.564;-7.958;2023-08-07T02:12:30;97170.69;;;26.29;32.68
61035;BME280;46916;40.564;-7.958;2023-08-07T02:14:33;97172.88;;;26.32;32.45
61035;BME280;46916;40.564;-7.958;2023-08-07T02:16:33;97169.28;;;26.27;32.64
61035;BME280;46916;40.564;-7.958;2023-08-07T02:18:34;97173.25;;;26.24;32.81
61035;BME280;46916;40.564;-7.958;2023-08-07T02:20:36;97173.25;;;26.24;32.77
61035;BME280;46916;40.564;-7.958;2023-08-07T02:22:36;97172.31;;;26.30;32.74
61035;BME280;46916;40.564;-7.958;2023-08-07T02:24:36;97174.91;;;26.25;32.51
61035;BME280;46916;40.564;-7.958;2023-08-07T02:26:37;97174.56;;;26.22;32.60
61035;BME280;46916;40.564;-7.958;2023-08-07T02:28:37;97179.13;;;26.21;32.43
61035;BME280;46916;40.564;-7.958;2023-08-07T02:30:38;97171.53;;;26.18;32.32
61035;BME280;46916;40.564;-7.958;2023-08-07T02:32:38;97180.03;;;26.15;32.40
61035;BME280;46916;40.564;-7.958;2023-08-07T02:34:41;97175.28;;;26.17;32.26
61035;BME280;46916;40.564;-7.958;2023-08-07T02:36:42;97181.19;;;26.19;31.89
61035;BME280;46916;40.564;-7.958;2023-08-07T02:38:42;97172.69;;;26.22;31.84
61035;BME280;46916;40.564;-7.958;2023-08-07T02:40:43;97179.94;;;26.22;31.78
61035;BME280;46916;40.564;-7.958;2023-08-07T02:42:43;97182.38;;;26.23;31.59
61035;BME280;46916;40.564;-7.958;2023-08-07T02:44:44;97187.25;;;26.26;31.49
61035;BME280;46916;40.564;-7.958;2023-08-07T02:46:45;97184.81;;;26.25;31.26
61035;BME280;46916;40.564;-7.958;2023-08-07T02:48:45;97184.22;;;26.23;31.27
61035;BME280;46916;40.564;-7.958;2023-08-07T02:50:46;97181.91;;;26.26;31.21
61035;BME280;46916;40.564;-7.958;2023-08-07T02:52:46;97185.97;;;26.29;30.76
61035;BME280;46916;40.564;-7.958;2023-08-07T02:54:47;97187.16;;;26.21;30.74
61035;BME280;46916;40.564;-7.958;2023-08-07T02:56:48;97180.03;;;26.15;30.68
61035;BME280;46916;40.564;-7.958;2023-08-07T02:58:49;97182.47;;;26.16;30.69
61035;BME280;46916;40.564;-7.958;2023-08-07T03:00:49;97183.31;;;26.17;30.29
61035;BME280;46916;40.564;-7.958;2023-08-07T03:02:50;97179.47;;;26.13;29.50
61035;BME280;46916;40.564;-7.958;2023-08-07T03:04:50;97173.50;;;26.11;29.51
61035;BME280;46916;40.564;-7.958;2023-08-07T03:06:51;97177.16;;;26.05;29.48
61035;BME280;46916;40.564;-7.958;2023-08-07T03:08:51;97174.09;;;26.01;29.15
61035;BME280;46916;40.564;-7.958;2023-08-07T03:10:52;97182.16;;;26.01;28.83
61035;BME280;46916;40.564;-7.958;2023-08-07T03:12:53;97185.31;;;25.98;28.47
61035;BME280;46916;40.564;-7.958;2023-08-07T03:14:53;97173.97;;;25.96;28.39
61035;BME280;46916;40.564;-7.958;2023-08-07T03:16:54;97179.59;;;25.94;28.08
61035;BME280;46916;40.564;-7.958;2023-08-07T03:18:55;97186.47;;;25.90;27.89
61035;BME280;46916;40.564;-7.958;2023-08-07T03:20:56;97192.88;;;25.89;27.91
61035;BME280;46916;40.564;-7.958;2023-08-07T03:22:56;97184.47;;;25.86;27.84
61035;BME280;46916;40.564;-7.958;2023-08-07T03:24:57;97182.63;;;25.86;27.67
61035;BME280;46916;40.564;-7.958;2023-08-07T03:26:57;97183.06;;;25.83;27.59
61035;BME280;46916;40.564;-7.958;2023-08-07T03:28:58;97183.44;;;25.87;27.09
61035;BME280;46916;40.564;-7.958;2023-08-07T03:30:58;97182.38;;;25.88;26.74
61035;BME280;46916;40.564;-7.958;2023-08-07T03:33:00;97185.19;;;25.81;26.92
61035;BME280;46916;40.564;-7.958;2023-08-07T03:35:01;97187.63;;;25.83;26.39
61035;BME280;46916;40.564;-7.958;2023-08-07T03:37:01;97183.88;;;25.72;26.61
61035;BME280;46916;40.564;-7.958;2023-08-07T03:39:02;97181.19;;;25.72;26.54
61035;BME280;46916;40.564;-7.958;2023-08-07T03:41:03;97192.94;;;25.71;26.13
61035;BME280;46916;40.564;-7.958;2023-08-07T03:43:05;97188.75;;;25.75;26.14
61035;BME280;46916;40.564;-7.958;2023-08-07T03:45:06;97191.78;;;25.67;25.96
61035;BME280;46916;40.564;-7.958;2023-08-07T03:47:06;97192.38;;;25.69;25.98
61035;BME280;46916;40.564;-7.958;2023-08-07T03:49:08;97191.78;;;25.67;26.04
61035;BME280;46916;40.564;-7.958;2023-08-07T03:51:08;97188.97;;;25.62;25.70
61035;BME280;46916;40.564;-7.958;2023-08-07T03:53:13;97191.09;;;25.60;25.29
61035;BME280;46916;40.564;-7.958;2023-08-07T03:55:18;97186.75;;;25.59;25.26
61035;BME280;46916;40.564;-7.958;2023-08-07T03:57:18;97189.91;;;25.56;25.60
61035;BME280;46916;40.564;-7.958;2023-08-07T03:59:19;97196.19;;;25.50;25.41
61035;BME280;46916;40.564;-7.958;2023-08-07T04:01:19;97195.63;;;25.48;25.57
61035;BME280;46916;40.564;-7.958;2023-08-07T04:03:20;97191.28;;;25.47;25.33
61035;BME280;46916;40.564;-7.958;2023-08-07T04:05:21;97195.00;;;25.45;25.41
61035;BME280;46916;40.564;-7.958;2023-08-07T04:07:21;97199.19;;;25.41;25.26
61035;BME280;46916;40.564;-7.958;2023-08-07T04:09:22;97192.66;;;25.37;25.42
61035;BME280;46916;40.564;-7.958;2023-08-07T04:11:23;97191.50;;;25.33;25.58
61035;BME280;46916;40.564;-7.958;2023-08-07T04:13:23;97202.34;;;25.38;25.39
61035;BME280;46916;40.564;-7.958;2023-08-07T04:15:24;97200.34;;;25.34;25.52
61035;BME280;46916;40.564;-7.958;2023-08-07T04:17:24;97197.66;;;25.34;25.16
61035;BME280;46916;40.564;-7.958;2023-08-07T04:19:25;97201.16;;;25.34;25.48
61035;BME280;46916;40.564;-7.958;2023-08-07T04:21:26;97201.47;;;25.26;25.82
61035;BME280;46916;40.564;-7.958;2023-08-07T04:23:27;97201.28;;;25.28;25.62
61035;BME280;46916;40.564;-7.958;2023-08-07T04:25:27;97199.63;;;25.27;25.38
61035;BME280;46916;40.564;-7.958;2023-08-07T04:27:29;97203.59;;;25.24;25.67
61035;BME280;46916;40.564;-7.958;2023-08-07T04:29:30;97206.03;;;25.26;25.65
61035;BME280;46916;40.564;-7.958;2023-08-07T04:31:30;97202.19;;;25.22;25.59
61035;BME280;46916;40.564;-7.958;2023-08-07T04:33:31;97213.72;;;25.22;25.61
61035;BME280;46916;40.564;-7.958;2023-08-07T04:35:32;97210.47;;;25.20;25.73
61035;BME280;46916;40.564;-7.958;2023-08-07T04:37:32;97212.09;;;25.21;25.70
61035;BME280;46916;40.564;-7.958;2023-08-07T04:39:32;97213.59;;;25.17;25.87
61035;BME280;46916;40.564;-7.958;2023-08-07T04:41:33;97218.50;;;25.20;25.64
61035;BME280;46916;40.564;-7.958;2023-08-07T04:43:33;97221.03;;;25.15;25.96
61035;BME280;46916;40.564;-7.958;2023-08-07T04:45:34;97212.03;;;25.09;25.92
61035;BME280;46916;40.564;-7.958;2023-08-07T04:47:34;97222.53;;;25.11;25.87
61035;BME280;46916;40.564;-7.958;2023-08-07T04:49:36;97226.25;;;25.10;25.85
61035;BME280;46916;40.564;-7.958;2023-08-07T04:51:36;97223.84;;;25.02;26.10
61035;BME280;46916;40.564;-7.958;2023-08-07T04:53:36;97222.84;;;25.03;26.19
61035;BME280;46916;40.564;-7.958;2023-08-07T04:55:37;97224.47;;;25.04;26.20
61035;BME280;46916;40.564;-7.958;2023-08-07T04:57:38;97224.22;;;25.05;26.24
61035;BME280;46916;40.564;-7.958;2023-08-07T04:59:39;97221.34;;;25.07;26.06
61035;BME280;46916;40.564;-7.958;2023-08-07T05:01:39;97224.38;;;25.10;25.98
61035;BME280;46916;40.564;-7.958;2023-08-07T05:03:39;97229.38;;;25.07;26.10
61035;BME280;46916;40.564;-7.958;2023-08-07T05:05:40;97227.59;;;25.01;26.16
61035;BME280;46916;40.564;-7.958;2023-08-07T05:07:41;97224.97;;;24.94;26.52
61035;BME280;46916;40.564;-7.958;2023-08-07T05:09:41;97231.63;;;24.91;26.43
61035;BME280;46916;40.564;-7.958;2023-08-07T05:11:42;97235.56;;;24.89;26.29
61035;BME280;46916;40.564;-7.958;2023-08-07T05:13:42;97230.06;;;24.84;26.48
61035;BME280;46916;40.564;-7.958;2023-08-07T05:15:43;97229.94;;;24.79;26.39
61035;BME280;46916;40.564;-7.958;2023-08-07T05:17:43;97232.00;;;24.77;26.58
61035;BME280;46916;40.564;-7.958;2023-08-07T05:19:44;97235.72;;;24.76;26.58
61035;BME280;46916;40.564;-7.958;2023-08-07T05:21:44;97238.03;;;24.72;26.58
61035;BME280;46916;40.564;-7.958;2023-08-07T05:23:50;97248.38;;;24.68;26.76
61035;BME280;46916;40.564;-7.958;2023-08-07T05:25:53;97245.13;;;24.66;26.84
61035;BME280;46916;40.564;-7.958;2023-08-07T05:27:54;97238.94;;;24.66;26.71
61035;BME280;46916;40.564;-7.958;2023-08-07T05:29:54;97240.78;;;24.65;26.84
61035;BME280;46916;40.564;-7.958;2023-08-07T05:31:54;97245.31;;;24.65;26.89
61035;BME280;46916;40.564;-7.958;2023-08-07T05:33:55;97244.81;;;24.56;27.00
61035;BME280;46916;40.564;-7.958;2023-08-07T05:35:55;97237.22;;;24.53;27.20
61035;BME280;46916;40.564;-7.958;2023-08-07T05:37:56;97244.22;;;24.54;27.25
61035;BME280;46916;40.564;-7.958;2023-08-07T05:39:56;97244.81;;;24.56;26.94
61035;BME280;46916;40.564;-7.958;2023-08-07T05:41:57;97249.13;;;24.57;27.23
61035;BME280;46916;40.564;-7.958;2023-08-07T05:43:58;97250.78;;;24.58;27.22
61035;BME280;46916;40.564;-7.958;2023-08-07T05:45:58;97252.47;;;24.53;27.35
61035;BME280;46916;40.564;-7.958;2023-08-07T05:47:59;97250.91;;;24.45;27.38
61035;BME280;46916;40.564;-7.958;2023-08-07T05:49:59;97247.63;;;24.43;27.48
61035;BME280;46916;40.564;-7.958;2023-08-07T05:51:59;97252.19;;;24.42;27.44
61035;BME280;46916;40.564;-7.958;2023-08-07T05:54:00;97246.00;;;24.42;27.64
61035;BME280;46916;40.564;-7.958;2023-08-07T05:56:00;97254.25;;;24.40;27.52
61035;BME280;46916;40.564;-7.958;2023-08-07T05:58:01;97252.00;;;24.37;27.70
61035;BME280;46916;40.564;-7.958;2023-08-07T06:00:01;97255.09;;;24.34;27.68
61035;BME280;46916;40.564;-7.958;2023-08-07T06:02:12;97266.63;;;24.35;27.55
61035;BME280;46916;40.564;-7.958;2023-08-07T06:04:12;97264.13;;;24.40;27.37
61035;BME280;46916;40.564;-7.958;2023-08-07T06:06:13;97262.53;;;24.32;27.72
61035;BME280;46916;40.564;-7.958;2023-08-07T06:08:13;97271.47;;;24.26;27.98
61035;BME280;46916;40.564;-7.958;2023-08-07T06:10:14;97274.56;;;24.23;27.78
61035;BME280;46916;40.564;-7.958;2023-08-07T06:12:14;97272.28;;;24.27;28.17
61035;BME280;46916;40.564;-7.958;2023-08-07T06:14:15;97280.69;;;24.30;28.21
61035;BME280;46916;40.564;-7.958;2023-08-07T06:16:15;97271.16;;;24.34;28.05
61035;BME280;46916;40.564;-7.958;2023-08-07T06:18:16;97270.34;;;24.34;28.33
61035;BME280;46916;40.564;-7.958;2023-08-07T06:20:16;97280.59;;;24.37;28.08
61035;BME280;46916;40.564;-7.958;2023-08-07T06:22:17;97261.84;;;24.37;28.14
61035;BME280;46916;40.564;-7.958;2023-08-07T06:24:17;97276.47;;;24.41;28.01
61035;BME280;46916;40.564;-7.958;2023-08-07T06:26:18;97273.75;;;24.48;27.95
61035;BME280;46916;40.564;-7.958;2023-08-07T06:28:18;97282.06;;;24.39;27.98
61035;BME280;46916;40.564;-7.958;2023-08-07T06:30:19;97287.63;;;24.38;28.04
61035;BME280;46916;40.564;-7.958;2023-08-07T06:32:19;97290.72;;;24.35;28.29
61035;BME280;46916;40.564;-7.958;2023-08-07T06:34:20;97286.63;;;24.32;28.35
61035;BME280;46916;40.564;-7.958;2023-08-07T06:36:20;97288.63;;;24.37;28.34
61035;BME280;46916;40.564;-7.958;2023-08-07T06:38:21;97290.94;;;24.33;28.51
61035;BME280;46916;40.564;-7.958;2023-08-07T06:40:21;97290.31;;;24.38;28.47
61035;BME280;46916;40.564;-7.958;2023-08-07T06:42:22;97293.97;;;24.43;28.47
61035;BME280;46916;40.564;-7.958;2023-08-07T06:44:22;97292.16;;;24.37;28.59
61035;BME280;46916;40.564;-7.958;2023-08-07T06:46:23;97292.75;;;24.39;28.62
61035;BME280;46916;40.564;-7.958;2023-08-07T06:48:27;97292.16;;;24.37;28.69
61035;BME280;46916;40.564;-7.958;2023-08-07T06:50:28;97293.53;;;24.46;28.86
61035;BME280;46916;40.564;-7.958;2023-08-07T06:52:29;97297.41;;;24.51;28.76
61035;BME280;46916;40.564;-7.958;2023-08-07T06:54:29;97303.94;;;24.55;28.45
61035;BME280;46916;40.564;-7.958;2023-08-07T06:56:30;97299.63;;;24.54;28.83
61035;BME280;46916;40.564;-7.958;2023-08-07T06:58:30;97296.44;;;24.63;28.97
61035;BME280;46916;40.564;-7.958;2023-08-07T07:00:30;97299.25;;;24.68;28.91
61035;BME280;46916;40.564;-7.958;2023-08-07T07:02:31;97300.81;;;24.76;28.87
61035;BME280;46916;40.564;-7.958;2023-08-07T07:04:32;97297.72;;;24.79;28.70
61035;BME280;46916;40.564;-7.958;2023-08-07T07:06:33;97307.38;;;24.80;28.87
61035;BME280;46916;40.564;-7.958;2023-08-07T07:08:34;97310.56;;;24.89;28.76
61035;BME280;46916;40.564;-7.958;2023-08-07T07:10:34;97301.66;;;24.95;28.80
61035;BME280;46916;40.564;-7.958;2023-08-07T07:12:35;97303.78;;;25.05;28.70
61035;BME280;46916;40.564;-7.958;2023-08-07T07:14:35;97306.19;;;25.13;28.68
61035;BME280;46916;40.564;-7.958;2023-08-07T07:16:35;97307.13;;;25.18;28.58
61035;BME280;46916;40.564;-7.958;2023-08-07T07:18:36;97305.56;;;25.29;28.34
61035;BME280;46916;40.564;-7.958;2023-08-07T07:20:37;97309.13;;;25.41;28.42
61035;BME280;46916;40.564;-7.958;2023-08-07T07:22:37;97313.22;;;25.44;28.65
61035;BME280;46916;40.564;-7.958;2023-08-07T07:24:38;97308.34;;;25.53;28.67
61035;BME280;46916;40.564;-7.958;2023-08-07T07:26:38;97313.84;;;25.58;28.26
61035;BME280;46916;40.564;-7.958;2023-08-07T07:28:39;97314.78;;;25.63;28.27
61035;BME280;46916;40.564;-7.958;2023-08-07T07:30:39;97309.94;;;25.72;28.27
61035;BME280;46916;40.564;-7.958;2023-08-07T07:32:39;97316.63;;;25.81;28.18
61035;BME280;46916;40.564;-7.958;2023-08-07T07:34:40;97312.56;;;25.90;27.92
61035;BME280;46916;40.564;-7.958;2023-08-07T07:36:40;97316.41;;;25.94;27.91
61035;BME280;46916;40.564;-7.958;2023-08-07T07:38:42;97323.63;;;25.82;28.30
61035;BME280;46916;40.564;-7.958;2023-08-07T07:40:43;97317.44;;;25.82;28.10
61035;BME280;46916;40.564;-7.958;2023-08-07T07:42:43;97316.63;;;25.81;28.47
61035;BME280;46916;40.564;-7.958;2023-08-07T07:44:44;97321.38;;;25.79;28.41
61035;BME280;46916;40.564;-7.958;2023-08-07T07:46:44;97320.94;;;25.82;28.21
61035;BME280;46916;40.564;-7.958;2023-08-07T07:48:45;97332.41;;;25.71;28.20
61035;BME280;46916;40.564;-7.958;2023-08-07T07:50:45;97329.84;;;25.64;28.54
61035;BME280;46916;40.564;-7.958;2023-08-07T07:52:46;97330.53;;;25.72;28.73
61035;BME280;46916;40.564;-7.958;2023-08-07T07:54:46;97325.84;;;25.85;27.99
61035;BME280;46916;40.564;-7.958;2023-08-07T07:56:47;97336.91;;;25.77;28.25
61035;BME280;46916;40.564;-7.958;2023-08-07T07:58:47;97331.38;;;25.72;28.23
61035;BME280;46916;40.564;-7.958;2023-08-07T08:00:47;97336.34;;;25.87;28.28
61035;BME280;46916;40.564;-7.958;2023-08-07T08:02:48;97324.69;;;25.81;28.49
61035;BME280;46916;40.564;-7.958;2023-08-07T08:04:50;97330.25;;;25.80;28.48
61035;BME280;46916;40.564;-7.958;2023-08-07T08:06:51;97334.47;;;25.87;28.53
61035;BME280;46916;40.564;-7.958;2023-08-07T08:08:52;97321.66;;;25.89;28.49
61035;BME280;46916;40.564;-7.958;2023-08-07T08:10:52;97320.56;;;25.79;28.54
61035;BME280;46916;40.564;-7.958;2023-08-07T08:12:56;97319.31;;;25.81;28.64
61035;BME280;46916;40.564;-7.958;2023-08-07T08:14:56;97328.00;;;25.77;28.55
61035;BME280;46916;40.564;-7.958;2023-08-07T08:16:57;97328.09;;;25.70;28.83
61035;BME280;46916;40.564;-7.958;2023-08-07T08:18:57;97325.94;;;25.79;28.50
61035;BME280;46916;40.564;-7.958;2023-08-07T08:20:58;97321.84;;;25.76;28.67
61035;BME280;46916;40.564;-7.958;2023-08-07T08:22:59;97323.78;;;25.69;28.86
61035;BME280;46916;40.564;-7.958;2023-08-07T08:24:59;97328.34;;;25.68;29.17
61035;BME280;46916;40.564;-7.958;2023-08-07T08:27:00;97331.97;;;25.74;29.04
61035;BME280;46916;40.564;-7.958;2023-08-07T08:29:01;97335.84;;;25.78;28.90
61035;BME280;46916;40.564;-7.958;2023-08-07T08:31:02;97338.66;;;25.83;28.69
61035;BME280;46916;40.564;-7.958;2023-08-07T08:33:02;97331.09;;;25.80;28.85
61035;BME280;46916;40.564;-7.958;2023-08-07T08:35:03;97337.28;;;25.81;29.03
61035;BME280;46916;40.564;-7.958;2023-08-07T08:37:03;97342.41;;;25.82;28.95
61035;BME280;46916;40.564;-7.958;2023-08-07T08:39:08;97344.75;;;25.90;28.67
61035;BME280;46916;40.564;-7.958;2023-08-07T08:41:08;97337.97;;;25.88;28.96
61035;BME280;46916;40.564;-7.958;2023-08-07T08:43:09;97343.25;;;25.94;29.15
61035;BME280;46916;40.564;-7.958;2023-08-07T08:45:13;97344.53;;;26.04;29.46
61035;BME280;46916;40.564;-7.958;2023-08-07T08:47:14;97337.31;;;26.16;28.89
61035;BME280;46916;40.564;-7.958;2023-08-07T08:49:15;97339.09;;;26.22;29.20
61035;BME280;46916;40.564;-7.958;2023-08-07T08:51:19;97346.56;;;26.32;28.34
61035;BME280;46916;40.564;-7.958;2023-08-07T08:53:20;97340.84;;;26.28;28.49
61035;BME280;46916;40.564;-7.958;2023-08-07T08:55:21;97338.66;;;26.25;28.56
61035;BME280;46916;40.564;-7.958;2023-08-07T08:57:22;97337.59;;;26.26;28.65
61035;BME280;46916;40.564;-7.958;2023-08-07T08:59:23;97337.34;;;26.28;28.88
61035;BME280;46916;40.564;-7.958;2023-08-07T09:01:23;97333.75;;;26.34;28.89
61035;BME280;46916;40.564;-7.958;2023-08-07T09:03:24;97337.34;;;26.39;28.70
61035;BME280;46916;40.564;-7.958;2023-08-07T09:05:25;97339.81;;;26.41;29.17
61035;BME280;46916;40.564;-7.958;2023-08-07T09:07:25;97346.72;;;26.49;28.74
61035;BME280;46916;40.564;-7.958;2023-08-07T09:09:27;97337.50;;;26.56;28.29
61035;BME280;46916;40.564;-7.958;2023-08-07T09:11:28;97339.72;;;26.59;28.24
61035;BME280;46916;40.564;-7.958;2023-08-07T09:13:29;97343.94;;;26.67;28.27
61035;BME280;46916;40.564;-7.958;2023-08-07T09:15:32;97344.84;;;26.73;28.18
61035;BME280;46916;40.564;-7.958;2023-08-07T09:17:39;97339.25;;;26.74;28.29
61035;BME280;46916;40.564;-7.958;2023-08-07T09:19:43;97341.47;;;26.77;28.06
61035;BME280;46916;40.564;-7.958;2023-08-07T09:21:43;97335.63;;;26.80;28.25
61035;BME280;46916;40.564;-7.958;2023-08-07T09:23:44;97337.84;;;26.83;28.06
61035;BME280;46916;40.564;-7.958;2023-08-07T09:25:44;97338.41;;;26.85;27.82
61035;BME280;46916;40.564;-7.958;2023-08-07T09:27:45;97338.53;;;26.90;28.09
61035;BME280;46916;40.564;-7.958;2023-08-07T09:29:46;97333.47;;;26.94;27.35
61035;BME280;46916;40.564;-7.958;2023-08-07T09:31:46;97335.59;;;26.92;28.02
61035;BME280;46916;40.564;-7.958;2023-08-07T09:33:48;97329.16;;;26.93;28.17
61035;BME280;46916;40.564;-7.958;2023-08-07T09:35:48;97326.22;;;27.06;27.62
61035;BME280;46916;40.564;-7.958;2023-08-07T09:37:49;97335.69;;;27.09;27.84
61035;BME280;46916;40.564;-7.958;2023-08-07T09:39:50;97335.34;;;27.17;27.54
61035;BME280;46916;40.564;-7.958;2023-08-07T09:41:51;97336.50;;;27.21;27.62
61035;BME280;46916;40.564;-7.958;2023-08-07T09:43:52;97335.69;;;27.21;27.23
61035;BME280;46916;40.564;-7.958;2023-08-07T09:45:52;97340.69;;;27.29;27.60
61035;BME280;46916;40.564;-7.958;2023-08-07T09:48:02;97333.19;;;27.31;27.20
61035;BME280;46916;40.564;-7.958;2023-08-07T09:50:03;97333.53;;;27.34;26.73
61035;BME280;46916;40.564;-7.958;2023-08-07T09:52:08;97329.81;;;27.35;27.16
61035;BME280;46916;40.564;-7.958;2023-08-07T09:54:09;97322.19;;;27.44;27.39
61035;BME280;46916;40.564;-7.958;2023-08-07T09:56:10;97324.47;;;27.52;26.89
61035;BME280;46916;40.564;-7.958;2023-08-07T09:58:12;97323.97;;;27.55;26.77
61035;BME280;46916;40.564;-7.958;2023-08-07T10:00:13;97322.44;;;27.59;26.88
61035;BME280;46916;40.564;-7.958;2023-08-07T10:02:20;97324.66;;;27.62;27.28
61035;BME280;46916;40.564;-7.958;2023-08-07T10:04:21;97312.94;;;27.69;26.86
61035;BME280;46916;40.564;-7.958;2023-08-07T10:06:22;97321.13;;;27.74;27.16
61035;BME280;46916;40.564;-7.958;2023-08-07T10:08:23;97320.47;;;27.83;26.53
61035;BME280;46916;40.564;-7.958;2023-08-07T10:10:23;97315.44;;;27.87;26.62
61035;BME280;46916;40.564;-7.958;2023-08-07T10:12:25;97313.41;;;27.94;26.49
61035;BME280;46916;40.564;-7.958;2023-08-07T10:14:26;97310.56;;;28.01;26.59
61035;BME280;46916;40.564;-7.958;2023-08-07T10:16:27;97304.66;;;28.04;26.43
61035;BME280;46916;40.564;-7.958;2023-08-07T10:18:30;97297.91;;;28.01;26.27
61035;BME280;46916;40.564;-7.958;2023-08-07T10:20:31;97298.88;;;28.12;26.24
61035;BME280;46916;40.564;-7.958;2023-08-07T10:22:32;97292.28;;;28.20;25.86
61035;BME280;46916;40.564;-7.958;2023-08-07T10:24:37;97297.50;;;28.26;25.87
61035;BME280;46916;40.564;-7.958;2023-08-07T10:26:40;97292.44;;;28.30;25.67
61035;BME280;46916;40.564;-7.958;2023-08-07T10:28:41;97300.25;;;28.31;26.00
61035;BME280;46916;40.564;-7.958;2023-08-07T10:30:43;97291.25;;;28.37;26.09
61035;BME280;46916;40.564;-7.958;2023-08-07T10:32:43;97289.69;;;28.42;25.60
61035;BME280;46916;40.564;-7.958;2023-08-07T10:34:49;97288.03;;;28.41;26.16
61035;BME280;46916;40.564;-7.958;2023-08-07T10:36:50;97293.81;;;28.49;25.86